createdAt,value
2023-03-17T00:01:16.376Z,99281.03
2023-03-17T00:03:45.431Z,99277.94
2023-03-17T00:06:27.649Z,99277.50
2023-03-17T00:08:54.072Z,99282.22
2023-03-17T00:11:21.114Z,99276.53
2023-03-17T00:13:48.775Z,99265.34
2023-03-17T00:16:27.095Z,99271.88
2023-03-17T00:18:55.055Z,99260.47
2023-03-17T00:21:40.043Z,99272.84
2023-03-17T00:24:09.617Z,99265.06
2023-03-17T00:26:36.004Z,99268.72
2023-03-17T00:29:02.307Z,99262.38
2023-03-17T00:31:30.082Z,99273.47
2023-03-17T00:33:56.984Z,99280.16
2023-03-17T00:36:27.930Z,99281.09
2023-03-17T00:38:54.791Z,99283.50
2023-03-17T00:41:22.473Z,99271.34
2023-03-17T00:43:49.399Z,99270.03
2023-03-17T00:46:35.402Z,99267.00
2023-03-17T00:49:03.348Z,99276.81
2023-03-17T00:51:29.639Z,99277.34
2023-03-17T00:53:56.876Z,99273.38
2023-03-17T00:56:23.339Z,99261.16
2023-03-17T00:58:49.702Z,99254.56
2023-03-17T01:01:16.158Z,99259.03
2023-03-17T01:03:42.674Z,99258.09
2023-03-17T01:06:12.906Z,99257.63
2023-03-17T01:08:41.400Z,99250.38
2023-03-17T01:11:15.971Z,99250.09
2023-03-17T01:13:42.277Z,99249.19
2023-03-17T01:16:12.553Z,99256.22
2023-03-17T01:18:39.757Z,99247.81
2023-03-17T01:21:06.586Z,99248.13
2023-03-17T01:23:33.080Z,99250.59
2023-03-17T01:25:59.378Z,99232.19
2023-03-17T01:28:25.736Z,99238.22
2023-03-17T01:30:52.184Z,99242.38
2023-03-17T01:33:18.964Z,99232.41
2023-03-17T01:35:48.505Z,99231.97
2023-03-17T01:38:15.214Z,99234.69
2023-03-17T01:40:49.384Z,99235.72
2023-03-17T01:43:33.580Z,99231.25
2023-03-17T01:46:25.178Z,99232.72
2023-03-17T01:48:57.635Z,99236.91
2023-03-17T01:51:34.538Z,99232.19
2023-03-17T01:54:04.805Z,99229.84
2023-03-17T01:56:31.363Z,99230.28
2023-03-17T01:59:01.632Z,99232.41
2023-03-17T02:01:33.493Z,99231.91
2023-03-17T02:04:00.798Z,99222.22
2023-03-17T02:06:27.399Z,99226.25
2023-03-17T02:08:53.906Z,99216.81
2023-03-17T02:11:21.010Z,99221.28
2023-03-17T02:13:47.427Z,99213.53
2023-03-17T02:16:16.078Z,99214.53
2023-03-17T02:18:43.163Z,99200.00
2023-03-17T02:21:45.109Z,99190.19
2023-03-17T02:24:27.743Z,99177.47
2023-03-17T02:26:56.760Z,99171.94
2023-03-17T02:29:23.687Z,99171.25
2023-03-17T02:31:50.510Z,99164.97
2023-03-17T02:34:17.555Z,99181.31
2023-03-17T02:36:44.140Z,99172.75
2023-03-17T02:39:11.010Z,99169.75
2023-03-17T02:41:37.882Z,99177.06
2023-03-17T02:44:04.657Z,99184.75
2023-03-17T02:46:31.136Z,99179.44
2023-03-17T02:48:59.581Z,99163.00
2023-03-17T02:51:26.102Z,99178.63
2023-03-17T02:53:52.506Z,99165.75
2023-03-17T02:56:18.830Z,99164.84
2023-03-17T02:58:45.319Z,99168.56
2023-03-17T03:01:11.866Z,99161.81
2023-03-17T03:03:38.414Z,99161.31
2023-03-17T03:06:05.116Z,99157.44
2023-03-17T03:08:31.504Z,99165.69
2023-03-17T03:10:57.935Z,99149.38
2023-03-17T03:13:24.298Z,99152.22
2023-03-17T03:15:50.686Z,99149.47
2023-03-17T03:18:17.517Z,99162.34
2023-03-17T03:20:44.934Z,99144.66
2023-03-17T03:23:11.695Z,99149.13
2023-03-17T03:25:38.500Z,99154.75
2023-03-17T03:28:08.000Z,99145.81
2023-03-17T03:30:36.546Z,99147.19
2023-03-17T03:33:03.245Z,99156.78
2023-03-17T03:35:30.013Z,99133.28
2023-03-17T03:37:56.966Z,99142.22
2023-03-17T03:40:24.346Z,99142.63
2023-03-17T03:42:50.909Z,99143.81
2023-03-17T03:45:17.370Z,99144.72
2023-03-17T03:47:43.701Z,99144.06
2023-03-17T03:50:11.161Z,99146.69
2023-03-17T03:52:37.672Z,99141.44
2023-03-17T03:55:04.231Z,99148.34
2023-03-17T03:57:30.609Z,99143.13
2023-03-17T03:59:57.216Z,99144.56
2023-03-17T04:02:23.624Z,99148.69
2023-03-17T04:04:50.165Z,99153.22
2023-03-17T04:07:16.532Z,99158.63
2023-03-17T04:09:42.910Z,99153.03
2023-03-17T04:12:09.673Z,99148.84
2023-03-17T04:14:36.420Z,99143.13
2023-03-17T04:17:04.567Z,99153.56
2023-03-17T04:19:31.214Z,99151.47
2023-03-17T04:21:57.682Z,99141.59
2023-03-17T04:24:24.038Z,99138.41
2023-03-17T04:26:50.373Z,99146.66
2023-03-17T04:29:16.835Z,99141.69
2023-03-17T04:31:43.203Z,99140.09
2023-03-17T04:34:15.622Z,99144.75
2023-03-17T04:36:43.623Z,99142.25
2023-03-17T04:39:10.256Z,99159.13
2023-03-17T04:41:36.619Z,99158.78
2023-03-17T04:44:02.986Z,99151.72
2023-03-17T04:46:29.468Z,99144.44
2023-03-17T04:48:57.159Z,99165.53
2023-03-17T04:51:23.986Z,99166.00
2023-03-17T04:53:50.539Z,99157.91
2023-03-17T04:56:16.869Z,99159.56
2023-03-17T04:58:43.270Z,99164.75
2023-03-17T05:01:09.748Z,99167.78
2023-03-17T05:03:36.663Z,99159.50
2023-03-17T05:06:04.073Z,99159.53
2023-03-17T05:08:31.038Z,99171.66
2023-03-17T05:10:58.342Z,99167.03
2023-03-17T05:13:25.882Z,99162.19
2023-03-17T05:15:54.310Z,99170.84
2023-03-17T05:18:24.019Z,99175.88
2023-03-17T05:20:50.669Z,99165.63
2023-03-17T05:23:17.037Z,99168.81
2023-03-17T05:25:43.927Z,99176.16
2023-03-17T05:28:10.249Z,99171.56
2023-03-17T05:30:37.833Z,99176.94
2023-03-17T05:33:05.093Z,99184.06
2023-03-17T05:35:32.028Z,99184.06
2023-03-17T05:37:58.318Z,99183.25
2023-03-17T05:40:24.748Z,99176.41
2023-03-17T05:42:51.495Z,99177.34
2023-03-17T05:45:18.562Z,99172.44
2023-03-17T05:47:45.657Z,99171.34
2023-03-17T05:50:12.846Z,99173.25
2023-03-17T05:52:39.188Z,99168.31
2023-03-17T05:55:07.696Z,99175.72
2023-03-17T05:57:34.696Z,99166.72
2023-03-17T06:00:01.022Z,99162.09
2023-03-17T06:02:27.519Z,99153.69
2023-03-17T06:04:53.831Z,99162.28
2023-03-17T06:07:20.434Z,99143.63
2023-03-17T06:09:46.745Z,99143.94
2023-03-17T06:12:13.094Z,99145.38
2023-03-17T06:14:39.402Z,99147.22
2023-03-17T06:17:06.130Z,99149.94
2023-03-17T06:19:32.548Z,99154.00
2023-03-17T06:21:59.638Z,99156.72
2023-03-17T06:24:26.099Z,99157.25
2023-03-17T06:26:52.871Z,99156.22
2023-03-17T06:29:19.599Z,99145.78
2023-03-17T06:31:50.356Z,99151.13
2023-03-17T06:34:21.497Z,99145.84
2023-03-17T06:36:48.115Z,99155.75
2023-03-17T06:39:15.635Z,99155.84
2023-03-17T06:41:42.248Z,99142.53
2023-03-17T06:44:08.723Z,99149.13
2023-03-17T06:46:35.934Z,99149.22
2023-03-17T06:49:03.599Z,99154.78
2023-03-17T06:51:31.060Z,99169.81
2023-03-17T06:53:58.082Z,99155.53
2023-03-17T06:56:30.032Z,99149.94
2023-03-17T06:58:57.385Z,99148.97
2023-03-17T07:01:23.874Z,99146.53
2023-03-17T07:03:50.712Z,99146.56
2023-03-17T07:06:17.083Z,99147.72
2023-03-17T07:08:43.392Z,99146.88
2023-03-17T07:11:09.773Z,99143.44
2023-03-17T07:13:37.188Z,99157.56
2023-03-17T07:16:04.234Z,99159.72
2023-03-17T07:18:34.219Z,99150.88
2023-03-17T07:21:02.113Z,99152.44
2023-03-17T07:23:29.441Z,99138.81
2023-03-17T07:25:57.358Z,99147.69
2023-03-17T07:28:24.353Z,99136.00
2023-03-17T07:30:51.378Z,99139.84
2023-03-17T07:33:21.030Z,99142.94
2023-03-17T07:35:48.802Z,99149.22
2023-03-17T07:38:16.957Z,99147.59
2023-03-17T07:40:45.996Z,99146.28
2023-03-17T07:43:12.430Z,99142.97
2023-03-17T07:45:39.112Z,99139.59
2023-03-17T07:48:06.794Z,99149.13
2023-03-17T07:50:34.817Z,99154.72
2023-03-17T07:53:01.532Z,99151.53
2023-03-17T07:55:27.870Z,99147.06
2023-03-17T07:57:54.258Z,99137.31
2023-03-17T08:00:21.672Z,99146.06
2023-03-17T08:03:03.215Z,99133.69
2023-03-17T08:05:34.611Z,99122.97
2023-03-17T08:08:00.933Z,99131.69
2023-03-17T08:10:27.311Z,99129.06
2023-03-17T08:12:53.806Z,99133.72
2023-03-17T08:15:20.184Z,99131.50
2023-03-17T08:17:46.481Z,99130.84
2023-03-17T08:20:13.065Z,99129.91
2023-03-17T08:22:39.878Z,99131.91
2023-03-17T08:25:06.532Z,99128.63
2023-03-17T08:27:33.978Z,99127.19
2023-03-17T08:30:00.467Z,99129.06
2023-03-17T08:32:27.230Z,99132.91
2023-03-17T08:34:54.655Z,99144.22
2023-03-17T08:37:22.130Z,99142.25
2023-03-17T08:39:48.810Z,99142.56
2023-03-17T08:42:15.495Z,99122.47
2023-03-17T08:44:43.998Z,99118.19
2023-03-17T08:47:10.770Z,99121.59
2023-03-17T08:49:37.275Z,99130.81
2023-03-17T08:52:04.121Z,99130.75
2023-03-17T08:54:30.458Z,99110.63
2023-03-17T08:56:57.714Z,99101.31
2023-03-17T08:59:24.040Z,99103.22
2023-03-17T09:01:50.415Z,99092.94
2023-03-17T09:04:16.788Z,99085.03
2023-03-17T09:07:01.252Z,99088.25
2023-03-17T09:09:30.691Z,99079.16
2023-03-17T09:11:57.040Z,99070.28
2023-03-17T09:14:24.690Z,99067.28
2023-03-17T09:16:51.400Z,99066.91
2023-03-17T09:19:17.850Z,99081.84
2023-03-17T09:21:44.524Z,99076.78
2023-03-17T09:24:11.033Z,99080.72
2023-03-17T09:26:37.434Z,99071.94
2023-03-17T09:29:04.693Z,99062.38
2023-03-17T09:31:32.101Z,99075.97
2023-03-17T09:33:58.753Z,99084.94
2023-03-17T09:36:26.084Z,99079.28
2023-03-17T09:38:52.598Z,99076.16
2023-03-17T09:41:24.568Z,99076.09
2023-03-17T09:44:02.834Z,99078.09
2023-03-17T09:46:49.423Z,99085.47
2023-03-17T09:49:22.726Z,99083.06
2023-03-17T09:51:49.973Z,99083.69
2023-03-17T09:54:25.862Z,99094.13
2023-03-17T09:56:59.116Z,99086.97
2023-03-17T09:59:29.069Z,99083.94
2023-03-17T10:01:55.968Z,99092.72
2023-03-17T10:04:22.797Z,99086.22
2023-03-17T10:06:49.987Z,99091.22
2023-03-17T10:09:19.189Z,99087.88
2023-03-17T10:11:54.408Z,99081.75
2023-03-17T10:14:35.358Z,99091.22
2023-03-17T10:17:13.535Z,99080.94
2023-03-17T10:19:56.070Z,99076.47
2023-03-17T10:22:31.006Z,99074.50
2023-03-17T10:25:32.564Z,99062.66
2023-03-17T10:28:09.194Z,99060.75
2023-03-17T10:30:35.810Z,99063.81
2023-03-17T10:33:06.917Z,99057.63
2023-03-17T10:35:36.191Z,99057.22
2023-03-17T10:38:17.613Z,99063.72
2023-03-17T10:40:54.518Z,99067.59
2023-03-17T10:43:21.919Z,99060.22
2023-03-17T10:45:58.995Z,99061.13
2023-03-17T10:48:25.364Z,99066.94
2023-03-17T10:50:52.988Z,99072.75
2023-03-17T10:53:28.580Z,99067.25
2023-03-17T10:56:06.580Z,99070.78
2023-03-17T10:58:47.480Z,99065.97
2023-03-17T11:01:22.633Z,99064.88
2023-03-17T11:03:49.740Z,99059.72
2023-03-17T11:06:30.686Z,99061.59
2023-03-17T11:09:02.019Z,99048.34
2023-03-17T11:11:34.609Z,99049.28
2023-03-17T11:14:05.921Z,99045.28
2023-03-17T11:16:37.158Z,99043.00
2023-03-17T11:19:08.037Z,99033.28
2023-03-17T11:22:04.760Z,99034.56
2023-03-17T11:24:33.950Z,99035.13
2023-03-17T11:27:05.410Z,99033.44
2023-03-17T11:29:52.899Z,99023.81
2023-03-17T11:32:34.194Z,99019.88
2023-03-17T11:35:01.233Z,99028.75
2023-03-17T11:37:51.750Z,99016.00
2023-03-17T11:40:24.192Z,99026.31
2023-03-17T11:43:05.466Z,99019.13
2023-03-17T11:46:10.139Z,99013.66
2023-03-17T11:49:10.121Z,99014.94
2023-03-17T11:51:57.009Z,99012.88
2023-03-17T11:54:47.013Z,98997.28
2023-03-17T11:57:26.983Z,99007.78
2023-03-17T12:00:31.727Z,99002.44
2023-03-17T12:03:19.169Z,98995.00
2023-03-17T12:05:54.694Z,98988.72
2023-03-17T12:08:30.146Z,98983.13
2023-03-17T12:11:00.878Z,98989.31
2023-03-17T12:13:48.338Z,98989.72
2023-03-17T12:16:52.294Z,98980.88
2023-03-17T12:19:26.042Z,98992.81
2023-03-17T12:21:54.115Z,98986.91
2023-03-17T12:24:28.003Z,98999.13
2023-03-17T12:26:54.260Z,98998.38
2023-03-17T12:29:31.818Z,98988.91
2023-03-17T12:32:08.159Z,98989.88
2023-03-17T12:34:38.813Z,99000.56
2023-03-17T12:37:05.463Z,98996.91
2023-03-17T12:39:37.033Z,98989.41
2023-03-17T12:42:28.167Z,98996.97
2023-03-17T12:45:00.693Z,98978.50
2023-03-17T12:47:56.891Z,98980.47
2023-03-17T12:50:31.179Z,98982.81
2023-03-17T12:53:24.380Z,98975.53
2023-03-17T12:55:53.594Z,98982.06
2023-03-17T12:58:35.792Z,98984.94
2023-03-17T13:01:08.768Z,98980.47
2023-03-17T13:03:42.552Z,98977.63
2023-03-17T13:06:19.612Z,98982.50
2023-03-17T13:08:46.621Z,98980.09
2023-03-17T13:11:18.335Z,98987.00
2023-03-17T13:13:58.917Z,98978.94
2023-03-17T13:16:32.573Z,98974.63
2023-03-17T13:19:25.305Z,98973.81
2023-03-17T13:22:24.624Z,98974.38
2023-03-17T13:24:53.119Z,98970.06
2023-03-17T13:27:25.394Z,98968.09
2023-03-17T13:29:52.764Z,98963.78
2023-03-17T13:32:25.152Z,98966.66
2023-03-17T13:34:53.664Z,98953.28
2023-03-17T13:37:28.524Z,98960.78
2023-03-17T13:40:14.374Z,98947.13
2023-03-17T13:42:58.984Z,98954.16
2023-03-17T13:45:46.343Z,98950.47
2023-03-17T13:48:36.214Z,98947.81
2023-03-17T13:51:14.512Z,98952.13
2023-03-17T13:53:55.269Z,98948.28
2023-03-17T13:56:48.085Z,98945.75
2023-03-17T13:59:16.797Z,98944.66
2023-03-17T14:01:54.395Z,98932.38
2023-03-17T14:04:25.786Z,98942.41
2023-03-17T14:06:56.209Z,98934.88
2023-03-17T14:09:27.692Z,98936.19
2023-03-17T14:11:56.271Z,98941.84
2023-03-17T14:14:47.413Z,98935.03
2023-03-17T14:17:19.001Z,98931.94
2023-03-17T14:20:04.262Z,98931.25
2023-03-17T14:22:30.757Z,98933.09
2023-03-17T14:25:01.565Z,98920.97
2023-03-17T14:27:32.554Z,98918.16
2023-03-17T14:30:05.851Z,98917.41
2023-03-17T14:32:32.274Z,98912.56
2023-03-17T14:34:59.258Z,98910.44
2023-03-17T14:37:26.864Z,98921.72
2023-03-17T14:39:57.347Z,98925.81
2023-03-17T14:45:08.098Z,98919.34
2023-03-17T14:47:40.891Z,98923.69
2023-03-17T14:50:20.554Z,98916.03
2023-03-17T14:52:52.021Z,98917.53
2023-03-17T14:55:19.624Z,98913.22
2023-03-17T14:57:52.655Z,98920.03
2023-03-17T15:00:33.812Z,98918.38
2023-03-17T15:03:05.139Z,98910.72
2023-03-17T15:05:43.397Z,98898.16
2023-03-17T15:08:48.871Z,98898.97
2023-03-17T15:11:21.866Z,98907.09
2023-03-17T15:13:50.433Z,98902.94
2023-03-17T15:16:24.621Z,98914.88
2023-03-17T15:19:01.776Z,98920.72
2023-03-17T15:21:41.702Z,98914.75
2023-03-17T15:26:46.682Z,98915.84
2023-03-17T15:29:13.046Z,98913.78
2023-03-17T15:31:39.379Z,98916.25
2023-03-17T15:34:05.768Z,98914.59
2023-03-17T15:36:33.302Z,98911.94
2023-03-17T15:39:00.977Z,98919.88
2023-03-17T15:41:27.500Z,98930.66
2023-03-17T15:43:53.880Z,98917.84
2023-03-17T15:46:27.276Z,98921.72
2023-03-17T15:48:53.695Z,98914.06
2023-03-17T15:51:20.049Z,98907.25
2023-03-17T15:53:47.318Z,98909.34
2023-03-17T15:56:18.750Z,98911.34
2023-03-17T15:58:47.817Z,98919.41
2023-03-17T16:01:15.459Z,98912.72
2023-03-17T16:03:42.459Z,98910.78
2023-03-17T16:06:17.551Z,98911.63
2023-03-17T16:08:44.133Z,98919.69
2023-03-17T16:11:15.236Z,98911.50
2023-03-17T16:13:41.760Z,98923.09
2023-03-17T16:16:16.734Z,98910.00
2023-03-17T16:18:43.421Z,98913.50
2023-03-17T16:21:09.809Z,98911.84
2023-03-17T16:23:37.471Z,98911.28
2023-03-17T16:26:15.017Z,98899.69
2023-03-17T16:28:44.798Z,98891.06
2023-03-17T16:31:17.964Z,98890.53
2023-03-17T16:33:44.741Z,98898.34
2023-03-17T16:36:15.785Z,98897.50
2023-03-17T16:38:42.536Z,98892.38
2023-03-17T16:41:20.994Z,98890.16
2023-03-17T16:43:59.111Z,98887.50
2023-03-17T16:46:26.790Z,98882.34
2023-03-17T16:48:53.334Z,98887.28
2023-03-17T16:51:19.739Z,98881.13
2023-03-17T16:53:46.574Z,98877.25
2023-03-17T16:56:17.126Z,98879.91
2023-03-17T16:58:43.544Z,98878.38
2023-03-17T17:01:14.554Z,98869.34
2023-03-17T17:03:42.588Z,98891.22
2023-03-17T17:06:10.743Z,98895.00
2023-03-17T17:08:37.068Z,98890.97
2023-03-17T17:11:03.500Z,98907.28
2023-03-17T17:13:29.806Z,98896.00
2023-03-17T17:15:56.286Z,98910.53
2023-03-17T17:18:24.380Z,98909.69
2023-03-17T17:20:52.932Z,98907.47
2023-03-17T17:23:26.996Z,98908.03
2023-03-17T17:25:54.390Z,98907.13
2023-03-17T17:28:22.877Z,98918.50
2023-03-17T17:30:50.582Z,98921.16
2023-03-17T17:33:17.912Z,98929.38
2023-03-17T17:35:45.240Z,98915.50
2023-03-17T17:38:17.821Z,98925.38
2023-03-17T17:40:44.221Z,98934.28
2023-03-17T17:43:10.893Z,98925.91
2023-03-17T17:45:37.442Z,98927.75
2023-03-17T17:48:04.755Z,98926.91
2023-03-17T17:50:31.431Z,98926.75
2023-03-17T17:53:05.352Z,98931.22
2023-03-17T17:55:33.598Z,98928.72
2023-03-17T17:58:00.456Z,98923.72
2023-03-17T18:00:27.438Z,98926.06
2023-03-17T18:02:53.888Z,98935.69
2023-03-17T18:05:20.322Z,98934.13
2023-03-17T18:07:46.699Z,98926.19
2023-03-17T18:10:19.347Z,98930.13
2023-03-17T18:12:45.765Z,98926.34
2023-03-17T18:15:12.490Z,98916.91
2023-03-17T18:17:38.887Z,98929.16
2023-03-17T18:20:06.500Z,98925.25
2023-03-17T18:22:33.416Z,98928.88
2023-03-17T18:24:59.754Z,98935.16
2023-03-17T18:27:26.034Z,98934.88
2023-03-17T18:29:54.032Z,98930.97
2023-03-17T18:32:20.375Z,98933.19
2023-03-17T18:34:48.031Z,98932.94
2023-03-17T18:37:17.345Z,98930.41
2023-03-17T18:39:44.583Z,98948.22
2023-03-17T18:42:11.504Z,98937.91
2023-03-17T18:44:39.780Z,98939.31
2023-03-17T18:47:07.318Z,98932.63
2023-03-17T18:49:34.481Z,98940.56
2023-03-17T18:52:01.042Z,98944.72
2023-03-17T18:54:28.376Z,98949.19
2023-03-17T18:56:55.696Z,98955.72
2023-03-17T18:59:22.156Z,98946.81
2023-03-17T19:01:48.470Z,98946.25
2023-03-17T19:04:14.838Z,98946.38
2023-03-17T19:06:42.511Z,98936.78
2023-03-17T19:09:10.547Z,98956.66
2023-03-17T19:11:39.138Z,98959.03
2023-03-17T19:14:07.222Z,98959.44
2023-03-17T19:16:35.044Z,98948.75
2023-03-17T19:19:01.978Z,98946.78
2023-03-17T19:21:28.417Z,98956.38
2023-03-17T19:23:58.088Z,98956.53
2023-03-17T19:26:24.407Z,98958.59
2023-03-17T19:28:50.746Z,98949.84
2023-03-17T19:31:17.124Z,98965.28
2023-03-17T19:33:43.496Z,98959.69
2023-03-17T19:36:12.734Z,98955.41
2023-03-17T19:38:39.372Z,98971.09
2023-03-17T19:41:05.767Z,98960.25
2023-03-17T19:43:40.414Z,98969.84
2023-03-17T19:46:07.941Z,98964.31
2023-03-17T19:48:34.571Z,98964.00
2023-03-17T19:51:01.965Z,98975.97
2023-03-17T19:53:28.360Z,98965.94
2023-03-17T19:55:56.646Z,98968.63
2023-03-17T19:58:23.017Z,98973.03
2023-03-17T20:00:49.297Z,98973.00
2023-03-17T20:03:15.832Z,98975.97
2023-03-17T20:05:45.135Z,98970.69
2023-03-17T20:08:11.448Z,98973.88
2023-03-17T20:10:38.523Z,98984.56
2023-03-17T20:13:05.061Z,98979.84
2023-03-17T20:15:31.421Z,98976.94
2023-03-17T20:17:57.888Z,98974.69
2023-03-17T20:20:24.180Z,98976.38
2023-03-17T20:22:50.556Z,98977.91
2023-03-17T20:25:16.975Z,98973.69
2023-03-17T20:27:43.376Z,98983.56
2023-03-17T20:30:12.007Z,98979.78
2023-03-17T20:32:39.072Z,98985.38
2023-03-17T20:35:07.950Z,98986.59
2023-03-17T20:37:35.367Z,98981.53
2023-03-17T20:40:04.570Z,99000.09
2023-03-17T20:42:31.011Z,98984.81
2023-03-17T20:44:57.748Z,98992.53
2023-03-17T20:47:24.466Z,98995.59
2023-03-17T20:49:50.875Z,99002.56
2023-03-17T20:52:17.381Z,99000.38
2023-03-17T20:54:43.852Z,98998.16
2023-03-17T20:57:13.861Z,98994.81
2023-03-17T20:59:41.479Z,99001.19
2023-03-17T21:02:17.428Z,98994.13
2023-03-17T21:04:47.898Z,98990.38
2023-03-17T21:07:17.233Z,98992.84
2023-03-17T21:09:44.806Z,98995.75
2023-03-17T21:12:16.256Z,98997.41
2023-03-17T21:14:42.883Z,99002.00
2023-03-17T21:17:10.461Z,99007.84
2023-03-17T21:19:37.789Z,99001.19
2023-03-17T21:22:05.218Z,98998.47
2023-03-17T21:24:33.952Z,99005.34
2023-03-17T21:27:03.310Z,98995.69
2023-03-17T21:29:31.380Z,98992.28
2023-03-17T21:32:00.270Z,98983.06
2023-03-17T21:34:28.186Z,98997.78
2023-03-17T21:36:54.554Z,98975.25
2023-03-17T21:39:20.911Z,98978.63
2023-03-17T21:41:49.137Z,98979.34
2023-03-17T21:44:15.895Z,98978.91
2023-03-17T21:46:46.430Z,98984.72
2023-03-17T21:49:13.304Z,98986.69
2023-03-17T21:51:39.618Z,98986.19
2023-03-17T21:54:05.986Z,98990.75
2023-03-17T21:56:32.411Z,99007.50
2023-03-17T21:58:58.957Z,99008.28
2023-03-17T22:01:26.048Z,99010.41
2023-03-17T22:03:52.384Z,99004.41
2023-03-17T22:06:20.388Z,99015.59
2023-03-17T22:08:47.951Z,99016.75
2023-03-17T22:11:17.556Z,99021.88
2023-03-17T22:13:44.641Z,99018.84
2023-03-17T22:16:12.295Z,99017.81
2023-03-17T22:18:39.320Z,99030.34
2023-03-17T22:21:06.762Z,99035.28
2023-03-17T22:23:37.145Z,99035.72
2023-03-17T22:26:03.509Z,99033.28
2023-03-17T22:28:30.030Z,99041.31
2023-03-17T22:30:56.349Z,99039.38
2023-03-17T22:33:23.153Z,99037.56
2023-03-17T22:35:49.487Z,99046.53
2023-03-17T22:38:15.848Z,99038.44
2023-03-17T22:40:42.156Z,99046.16
2023-03-17T22:43:08.561Z,99030.28
2023-03-17T22:45:35.119Z,99054.97
2023-03-17T22:48:01.549Z,99049.53
2023-03-17T22:50:28.118Z,99048.84
2023-03-17T22:52:54.471Z,99048.59
2023-03-17T22:55:20.825Z,99047.53
2023-03-17T22:57:47.226Z,99042.81
2023-03-17T23:00:16.793Z,99050.47
2023-03-17T23:02:44.481Z,99043.63
2023-03-17T23:05:11.567Z,99042.75
2023-03-17T23:07:49.555Z,99053.28
2023-03-17T23:10:21.916Z,99045.47
2023-03-17T23:12:49.446Z,99055.69
2023-03-17T23:15:18.615Z,99059.03
2023-03-17T23:17:45.000Z,99057.78
2023-03-17T23:20:11.890Z,99062.66
2023-03-17T23:22:38.182Z,99066.75
2023-03-17T23:25:05.272Z,99076.88
2023-03-17T23:27:31.594Z,99082.41
2023-03-17T23:29:59.077Z,99073.78
2023-03-17T23:32:25.441Z,99087.16
2023-03-17T23:34:51.771Z,99064.81
2023-03-17T23:37:18.132Z,99082.66
2023-03-17T23:39:44.629Z,99086.44
2023-03-17T23:42:11.149Z,99080.56
2023-03-17T23:44:37.542Z,99088.88
2023-03-17T23:47:04.235Z,99087.28
2023-03-17T23:49:30.892Z,99090.38
2023-03-17T23:51:58.653Z,99100.13
2023-03-17T23:54:25.022Z,99110.81
2023-03-17T23:56:52.503Z,99112.84
2023-03-17T23:59:18.794Z,99114.63
